sensor_id;sensor_type;location;lat;lon;timestamp;pressure;altitude;pressure_sealevel;temperature;humidity
25238;BME280;13185;50.872;5.306;2024-03-25T00:02:02;100587.44;;;4.15;100.00
25238;BME280;13185;50.872;5.306;2024-03-25T00:04:27;100583.84;;;4.16;100.00
25238;BME280;13185;50.872;5.306;2024-03-25T00:06:53;100576.91;;;4.13;100.00
25238;BME280;13185;50.872;5.306;2024-03-25T00:09:19;100580.47;;;4.12;100.00
25238;BME280;13185;50.872;5.306;2024-03-25T00:11:45;100577.03;;;4.10;100.00
25238;BME280;13185;50.872;5.306;2024-03-25T00:14:11;100577.97;;;4.09;100.00
25238;BME280;13185;50.872;5.306;2024-03-25T00:16:37;100579.84;;;4.07;100.00
25238;BME280;13185;50.872;5.306;2024-03-25T00:19:02;100578.03;;;4.08;100.00
25238;BME280;13185;50.872;5.306;2024-03-25T00:21:28;100573.66;;;4.07;100.00
25238;BME280;13185;50.872;5.306;2024-03-25T00:23:54;100584.31;;;4.05;100.00
25238;BME280;13185;50.872;5.306;2024-03-25T00:26:25;100586.09;;;4.04;100.00
25238;BME280;13185;50.872;5.306;2024-03-25T00:28:50;100587.03;;;4.03;100.00
25238;BME280;13185;50.872;5.306;2024-03-25T00:31:16;100583.59;;;4.01;100.00
25238;BME280;13185;50.872;5.306;2024-03-25T00:33:41;100579.22;;;4.00;100.00
25238;BME280;13185;50.872;5.306;2024-03-25T00:36:07;100582.81;;;3.99;100.00
25238;BME280;13185;50.872;5.306;2024-03-25T00:38:33;100581.94;;;3.99;100.00
25238;BME280;13185;50.872;5.306;2024-03-25T00:40:58;100577.63;;;3.96;100.00
25238;BME280;13185;50.872;5.306;2024-03-25T00:43:24;100582.25;;;3.91;100.00
25238;BME280;13185;50.872;5.306;2024-03-25T00:45:49;100582.31;;;3.90;100.00
25238;BME280;13185;50.872;5.306;2024-03-25T00:48:15;100584.91;;;3.91;100.00
25238;BME280;13185;50.872;5.306;2024-03-25T00:50:40;100582.25;;;3.91;100.00
25238;BME280;13185;50.872;5.306;2024-03-25T00:53:06;100589.34;;;3.91;100.00
25238;BME280;13185;50.872;5.306;2024-03-25T00:55:33;100585.03;;;3.88;100.00
25238;BME280;13185;50.872;5.306;2024-03-25T00:58:00;100586.94;;;3.85;100.00
25238;BME280;13185;50.872;5.306;2024-03-25T01:00:26;100584.50;;;3.80;100.00
25238;BME280;13185;50.872;5.306;2024-03-25T01:02:52;100582.91;;;3.76;100.00
25238;BME280;13185;50.872;5.306;2024-03-25T01:05:17;100578.63;;;3.72;100.00
25238;BME280;13185;50.872;5.306;2024-03-25T01:07:43;100572.66;;;3.67;100.00
25238;BME280;13185;50.872;5.306;2024-03-25T01:10:09;100571.88;;;3.65;100.00
25238;BME280;13185;50.872;5.306;2024-03-25T01:12:35;100576.47;;;3.60;100.00
25238;BME280;13185;50.872;5.306;2024-03-25T01:15:01;100572.19;;;3.57;100.00
25238;BME280;13185;50.872;5.306;2024-03-25T01:17:28;100573.16;;;3.55;100.00
25238;BME280;13185;50.872;5.306;2024-03-25T01:19:53;100560.06;;;3.50;100.00
25238;BME280;13185;50.872;5.306;2024-03-25T01:22:19;100562.00;;;3.46;100.00
25238;BME280;13185;50.872;5.306;2024-03-25T01:24:44;100559.41;;;3.45;100.00
25238;BME280;13185;50.872;5.306;2024-03-25T01:27:10;100558.59;;;3.43;100.00
25238;BME280;13185;50.872;5.306;2024-03-25T01:29:36;100557.78;;;3.41;100.00
25238;BME280;13185;50.872;5.306;2024-03-25T01:32:02;100562.38;;;3.37;100.00
25238;BME280;13185;50.872;5.306;2024-03-25T01:34:29;100573.84;;;3.38;100.00
25238;BME280;13185;50.872;5.306;2024-03-25T01:36:55;100565.09;;;3.36;100.00
25238;BME280;13185;50.872;5.306;2024-03-25T01:39:21;100572.25;;;3.34;100.00
25238;BME280;13185;50.872;5.306;2024-03-25T01:41:46;100561.66;;;3.32;100.00
25238;BME280;13185;50.872;5.306;2024-03-25T01:44:12;100560.88;;;3.30;100.00
25238;BME280;13185;50.872;5.306;2024-03-25T01:46:39;100559.22;;;3.28;100.00
25238;BME280;13185;50.872;5.306;2024-03-25T01:49:05;100561.06;;;3.26;100.00
25238;BME280;13185;50.872;5.306;2024-03-25T01:51:31;100555.78;;;3.26;100.00
25238;BME280;13185;50.872;5.306;2024-03-25T01:53:58;100555.84;;;3.24;100.00
25238;BME280;13185;50.872;5.306;2024-03-25T01:56:24;100549.69;;;3.22;100.00
25238;BME280;13185;50.872;5.306;2024-03-25T01:58:51;100548.91;;;3.20;100.00
25238;BME280;13185;50.872;5.306;2024-03-25T02:01:18;100554.34;;;3.17;100.00
25238;BME280;13185;50.872;5.306;2024-03-25T02:03:44;100555.25;;;3.16;100.00
25238;BME280;13185;50.872;5.306;2024-03-25T02:06:13;100549.16;;;3.14;100.00
25238;BME280;13185;50.872;5.306;2024-03-25T02:08:42;100553.69;;;3.10;100.00
25238;BME280;13185;50.872;5.306;2024-03-25T02:11:09;100553.69;;;3.10;100.00
25238;BME280;13185;50.872;5.306;2024-03-25T02:13:36;100546.69;;;3.09;100.00
25238;BME280;13185;50.872;5.306;2024-03-25T02:16:02;100534.41;;;3.07;100.00
25238;BME280;13185;50.872;5.306;2024-03-25T02:18:28;100534.47;;;3.05;100.00
25238;BME280;13185;50.872;5.306;2024-03-25T02:20:54;100532.84;;;3.01;100.00
25238;BME280;13185;50.872;5.306;2024-03-25T02:23:19;100536.50;;;2.99;100.00
25238;BME280;13185;50.872;5.306;2024-03-25T02:25:51;100526.09;;;2.94;100.00
25238;BME280;13185;50.872;5.306;2024-03-25T02:28:17;100522.75;;;2.89;100.00
25238;BME280;13185;50.872;5.306;2024-03-25T02:30:43;100526.38;;;2.86;100.00
25238;BME280;13185;50.872;5.306;2024-03-25T02:33:08;100524.81;;;2.81;100.00
25238;BME280;13185;50.872;5.306;2024-03-25T02:35:34;100519.63;;;2.78;100.00
25238;BME280;13185;50.872;5.306;2024-03-25T02:38:00;100516.31;;;2.73;100.00
25238;BME280;13185;50.872;5.306;2024-03-25T02:40:26;100522.56;;;2.70;100.00
25238;BME280;13185;50.872;5.306;2024-03-25T02:42:52;100518.38;;;2.65;100.00
25238;BME280;13185;50.872;5.306;2024-03-25T02:45:18;100505.22;;;2.63;100.00
25238;BME280;13185;50.872;5.306;2024-03-25T02:47:46;100502.63;;;2.62;100.00
25238;BME280;13185;50.872;5.306;2024-03-25T02:50:11;100507.16;;;2.58;100.00
25238;BME280;13185;50.872;5.306;2024-03-25T02:52:37;100506.34;;;2.56;100.00
25238;BME280;13185;50.872;5.306;2024-03-25T02:55:03;100500.31;;;2.52;100.00
25238;BME280;13185;50.872;5.306;2024-03-25T02:57:28;100498.59;;;2.51;100.00
25238;BME280;13185;50.872;5.306;2024-03-25T02:59:54;100503.06;;;2.49;100.00
25238;BME280;13185;50.872;5.306;2024-03-25T03:02:19;100496.97;;;2.47;100.00
25238;BME280;13185;50.872;5.306;2024-03-25T03:04:45;100507.63;;;2.46;100.00
25238;BME280;13185;50.872;5.306;2024-03-25T03:07:10;100505.16;;;2.41;100.00
25238;BME280;13185;50.872;5.306;2024-03-25T03:09:36;100499.03;;;2.39;100.00
25238;BME280;13185;50.872;5.306;2024-03-25T03:12:03;100505.31;;;2.37;100.00
25238;BME280;13185;50.872;5.306;2024-03-25T03:14:29;100500.06;;;2.35;100.00
25238;BME280;13185;50.872;5.306;2024-03-25T03:16:54;100494.03;;;2.31;100.00
25238;BME280;13185;50.872;5.306;2024-03-25T03:19:25;100495.97;;;2.26;100.00
25238;BME280;13185;50.872;5.306;2024-03-25T03:21:52;100503.22;;;2.21;100.00
25238;BME280;13185;50.872;5.306;2024-03-25T03:24:18;100511.22;;;2.20;100.00
25238;BME280;13185;50.872;5.306;2024-03-25T03:26:44;100502.56;;;2.15;100.00
25238;BME280;13185;50.872;5.306;2024-03-25T03:29:09;100504.47;;;2.11;100.00
25238;BME280;13185;50.872;5.306;2024-03-25T03:31:35;100505.41;;;2.10;100.00
25238;BME280;13185;50.872;5.306;2024-03-25T03:34:01;100504.63;;;2.07;100.00
25238;BME280;13185;50.872;5.306;2024-03-25T03:36:26;100495.88;;;2.05;100.00
25238;BME280;13185;50.872;5.306;2024-03-25T03:38:52;100497.72;;;2.02;100.00
25238;BME280;13185;50.872;5.306;2024-03-25T03:41:18;100490.72;;;2.01;100.00
25238;BME280;13185;50.872;5.306;2024-03-25T03:43:43;100484.66;;;1.98;100.00
25238;BME280;13185;50.872;5.306;2024-03-25T03:46:09;100490.06;;;1.95;100.00
25238;BME280;13185;50.872;5.306;2024-03-25T03:48:34;100484.88;;;1.92;100.00
25238;BME280;13185;50.872;5.306;2024-03-25T03:51:01;100485.75;;;1.92;100.00
25238;BME280;13185;50.872;5.306;2024-03-25T03:53:26;100479.59;;;1.92;100.00
25238;BME280;13185;50.872;5.306;2024-03-25T03:56:00;100483.16;;;1.91;100.00
25238;BME280;13185;50.872;5.306;2024-03-25T03:58:27;100486.66;;;1.91;100.00
25238;BME280;13185;50.872;5.306;2024-03-25T04:00:53;100487.66;;;1.89;100.00
25238;BME280;13185;50.872;5.306;2024-03-25T04:03:19;100483.41;;;1.83;100.00
25238;BME280;13185;50.872;5.306;2024-03-25T04:05:45;100480.09;;;1.78;100.00
25238;BME280;13185;50.872;5.306;2024-03-25T04:08:10;100471.38;;;1.74;100.00
25238;BME280;13185;50.872;5.306;2024-03-25T04:10:36;100475.78;;;1.74;100.00
25238;BME280;13185;50.872;5.306;2024-03-25T04:13:03;100482.00;;;1.73;100.00
25238;BME280;13185;50.872;5.306;2024-03-25T04:15:32;100484.59;;;1.74;100.00
25238;BME280;13185;50.872;5.306;2024-03-25T04:17:58;100479.22;;;1.78;100.00
25238;BME280;13185;50.872;5.306;2024-03-25T04:20:23;100483.63;;;1.77;100.00
25238;BME280;13185;50.872;5.306;2024-03-25T04:22:49;100477.53;;;1.75;100.00
25238;BME280;13185;50.872;5.306;2024-03-25T04:25:14;100474.94;;;1.73;100.00
25238;BME280;13185;50.872;5.306;2024-03-25T04:27:43;100484.72;;;1.71;100.00
25238;BME280;13185;50.872;5.306;2024-03-25T04:30:10;100482.97;;;1.70;100.00
25238;BME280;13185;50.872;5.306;2024-03-25T04:32:37;100483.91;;;1.69;100.00
25238;BME280;13185;50.872;5.306;2024-03-25T04:35:03;100491.84;;;1.69;100.00
25238;BME280;13185;50.872;5.306;2024-03-25T04:37:29;100490.06;;;1.70;100.00
25238;BME280;13185;50.872;5.306;2024-03-25T04:39:56;100486.63;;;1.66;100.00
25238;BME280;13185;50.872;5.306;2024-03-25T04:42:22;100488.53;;;1.63;100.00
25238;BME280;13185;50.872;5.306;2024-03-25T04:44:48;100480.72;;;1.60;100.00
25238;BME280;13185;50.872;5.306;2024-03-25T04:47:14;100480.75;;;1.58;100.00
25238;BME280;13185;50.872;5.306;2024-03-25T04:49:41;100478.19;;;1.57;100.00
25238;BME280;13185;50.872;5.306;2024-03-25T04:52:07;100473.78;;;1.56;100.00
25238;BME280;13185;50.872;5.306;2024-03-25T04:54:32;100476.34;;;1.59;100.00
25238;BME280;13185;50.872;5.306;2024-03-25T04:56:58;100481.44;;;1.63;100.00
25238;BME280;13185;50.872;5.306;2024-03-25T04:59:23;100474.31;;;1.67;100.00
25238;BME280;13185;50.872;5.306;2024-03-25T05:01:49;100472.47;;;1.69;100.00
25238;BME280;13185;50.872;5.306;2024-03-25T05:04:14;100469.81;;;1.69;100.00
25238;BME280;13185;50.872;5.306;2024-03-25T05:06:40;100467.97;;;1.71;100.00
25238;BME280;13185;50.872;5.306;2024-03-25T05:09:05;100475.00;;;1.72;100.00
25238;BME280;13185;50.872;5.306;2024-03-25T05:11:32;100477.63;;;1.72;100.00
25238;BME280;13185;50.872;5.306;2024-03-25T05:13:58;100477.63;;;1.72;100.00
25238;BME280;13185;50.872;5.306;2024-03-25T05:16:23;100482.88;;;1.73;100.00
25238;BME280;13185;50.872;5.306;2024-03-25T05:18:49;100481.16;;;1.72;100.00
25238;BME280;13185;50.872;5.306;2024-03-25T05:21:14;100480.28;;;1.72;100.00
25238;BME280;13185;50.872;5.306;2024-03-25T05:23:40;100475.84;;;1.72;100.00
25238;BME280;13185;50.872;5.306;2024-03-25T05:26:06;100476.78;;;1.71;100.00
25238;BME280;13185;50.872;5.306;2024-03-25T05:28:32;100472.34;;;1.72;100.00
25238;BME280;13185;50.872;5.306;2024-03-25T05:31:05;100463.50;;;1.73;100.00
25238;BME280;13185;50.872;5.306;2024-03-25T05:33:31;100465.16;;;1.76;100.00
25238;BME280;13185;50.872;5.306;2024-03-25T05:35:58;100471.31;;;1.76;100.00
25238;BME280;13185;50.872;5.306;2024-03-25T05:38:24;100467.88;;;1.74;100.00
25238;BME280;13185;50.872;5.306;2024-03-25T05:40:49;100469.53;;;1.77;100.00
25238;BME280;13185;50.872;5.306;2024-03-25T05:43:15;100467.72;;;1.79;100.00
25238;BME280;13185;50.872;5.306;2024-03-25T05:45:40;100465.94;;;1.79;100.00
25238;BME280;13185;50.872;5.306;2024-03-25T05:48:06;100469.38;;;1.81;100.00
25238;BME280;13185;50.872;5.306;2024-03-25T05:50:32;100473.75;;;1.82;100.00
25238;BME280;13185;50.872;5.306;2024-03-25T05:52:57;100473.69;;;1.84;100.00
25238;BME280;13185;50.872;5.306;2024-03-25T05:55:22;100466.50;;;1.87;100.00
25238;BME280;13185;50.872;5.306;2024-03-25T05:57:48;100462.91;;;1.90;100.00
25238;BME280;13185;50.872;5.306;2024-03-25T06:00:14;100471.72;;;1.90;100.00
25238;BME280;13185;50.872;5.306;2024-03-25T06:02:39;100465.50;;;1.91;100.00
25238;BME280;13185;50.872;5.306;2024-03-25T06:05:05;100463.53;;;1.96;100.00
25238;BME280;13185;50.872;5.306;2024-03-25T06:07:30;100466.03;;;2.01;100.00
25238;BME280;13185;50.872;5.306;2024-03-25T06:09:56;100469.31;;;2.08;100.00
25238;BME280;13185;50.872;5.306;2024-03-25T06:12:21;100468.19;;;2.15;100.00
25238;BME280;13185;50.872;5.306;2024-03-25T06:14:47;100467.91;;;2.22;100.00
25238;BME280;13185;50.872;5.306;2024-03-25T06:17:12;100467.56;;;2.31;100.00
25238;BME280;13185;50.872;5.306;2024-03-25T06:19:38;100469.81;;;2.42;100.00
25238;BME280;13185;50.872;5.306;2024-03-25T06:22:03;100464.97;;;2.53;100.00
25238;BME280;13185;50.872;5.306;2024-03-25T06:24:29;100466.22;;;2.67;100.00
25238;BME280;13185;50.872;5.306;2024-03-25T06:26:54;100460.53;;;2.77;100.00
25238;BME280;13185;50.872;5.306;2024-03-25T06:29:20;100453.00;;;2.88;100.00
25238;BME280;13185;50.872;5.306;2024-03-25T06:31:47;100448.94;;;3.02;100.00
25238;BME280;13185;50.872;5.306;2024-03-25T06:34:31;100437.88;;;3.14;100.00
25238;BME280;13185;50.872;5.306;2024-03-25T06:36:56;100435.56;;;3.27;100.00
25238;BME280;13185;50.872;5.306;2024-03-25T06:39:22;100441.34;;;3.36;100.00
25238;BME280;13185;50.872;5.306;2024-03-25T06:41:47;100425.94;;;3.46;100.00
25238;BME280;13185;50.872;5.306;2024-03-25T06:44:13;100430.00;;;3.55;100.00
25238;BME280;13185;50.872;5.306;2024-03-25T06:46:38;100433.16;;;3.63;100.00
25238;BME280;13185;50.872;5.306;2024-03-25T06:49:04;100441.56;;;3.72;100.00
25238;BME280;13185;50.872;5.306;2024-03-25T06:51:30;100434.16;;;3.81;100.00
25238;BME280;13185;50.872;5.306;2024-03-25T06:53:55;100435.69;;;3.86;100.00
25238;BME280;13185;50.872;5.306;2024-03-25T06:56:21;100430.16;;;3.91;100.00
25238;BME280;13185;50.872;5.306;2024-03-25T06:58:46;100435.16;;;3.98;100.00
25238;BME280;13185;50.872;5.306;2024-03-25T07:01:12;100433.13;;;4.03;100.00
25238;BME280;13185;50.872;5.306;2024-03-25T07:03:38;100437.38;;;4.08;100.00
25238;BME280;13185;50.872;5.306;2024-03-25T07:06:04;100436.31;;;4.12;100.00
25238;BME280;13185;50.872;5.306;2024-03-25T07:08:30;100430.84;;;4.15;100.00
25238;BME280;13185;50.872;5.306;2024-03-25T07:10:56;100418.31;;;4.18;100.00
25238;BME280;13185;50.872;5.306;2024-03-25T07:13:22;100422.41;;;4.25;100.00
25238;BME280;13185;50.872;5.306;2024-03-25T07:15:49;100424.00;;;4.29;100.00
25238;BME280;13185;50.872;5.306;2024-03-25T07:18:14;100435.25;;;4.34;100.00
25238;BME280;13185;50.872;5.306;2024-03-25T07:20:40;100424.56;;;4.36;100.00
25238;BME280;13185;50.872;5.306;2024-03-25T07:23:06;100425.31;;;4.40;100.00
25238;BME280;13185;50.872;5.306;2024-03-25T07:25:32;100429.53;;;4.44;100.00
25238;BME280;13185;50.872;5.306;2024-03-25T07:27:57;100425.78;;;4.48;100.00
25238;BME280;13185;50.872;5.306;2024-03-25T07:30:23;100418.56;;;4.51;100.00
25238;BME280;13185;50.872;5.306;2024-03-25T07:32:58;100420.91;;;4.57;100.00
25238;BME280;13185;50.872;5.306;2024-03-25T07:35:25;100418.13;;;4.60;100.00
25238;BME280;13185;50.872;5.306;2024-03-25T07:37:51;100420.56;;;4.65;100.00
25238;BME280;13185;50.872;5.306;2024-03-25T07:40:20;100425.72;;;4.68;100.00
25238;BME280;13185;50.872;5.306;2024-03-25T07:42:46;100414.97;;;4.71;100.00
25238;BME280;13185;50.872;5.306;2024-03-25T07:45:12;100421.78;;;4.77;100.00
25238;BME280;13185;50.872;5.306;2024-03-25T07:47:37;100423.38;;;4.81;100.00
25238;BME280;13185;50.872;5.306;2024-03-25T07:50:03;100420.41;;;4.87;100.00
25238;BME280;13185;50.872;5.306;2024-03-25T07:52:29;100429.88;;;4.92;100.00
25238;BME280;13185;50.872;5.306;2024-03-25T07:54:55;100427.72;;;5.01;100.00
25238;BME280;13185;50.872;5.306;2024-03-25T07:57:20;100421.16;;;5.08;100.00
25238;BME280;13185;50.872;5.306;2024-03-25T07:59:46;100418.97;;;5.16;100.00
25238;BME280;13185;50.872;5.306;2024-03-25T08:02:12;100422.75;;;5.29;100.00
25238;BME280;13185;50.872;5.306;2024-03-25T08:04:37;100424.78;;;5.41;100.00
25238;BME280;13185;50.872;5.306;2024-03-25T08:07:03;100409.31;;;5.49;100.00
25238;BME280;13185;50.872;5.306;2024-03-25T08:09:29;100414.94;;;5.61;100.00
25238;BME280;13185;50.872;5.306;2024-03-25T08:11:54;100413.38;;;5.74;100.00
25238;BME280;13185;50.872;5.306;2024-03-25T08:14:20;100412.75;;;5.86;100.00
25238;BME280;13185;50.872;5.306;2024-03-25T08:16:47;100410.50;;;5.96;100.00
25238;BME280;13185;50.872;5.306;2024-03-25T08:19:13;100411.72;;;6.06;100.00
25238;BME280;13185;50.872;5.306;2024-03-25T08:21:38;100405.97;;;6.14;100.00
25238;BME280;13185;50.872;5.306;2024-03-25T08:24:04;100419.56;;;6.25;100.00
25238;BME280;13185;50.872;5.306;2024-03-25T08:26:30;100410.31;;;6.32;100.00
25238;BME280;13185;50.872;5.306;2024-03-25T08:28:55;100408.50;;;6.32;100.00
25238;BME280;13185;50.872;5.306;2024-03-25T08:31:21;100406.38;;;6.39;100.00
25238;BME280;13185;50.872;5.306;2024-03-25T08:33:46;100414.19;;;6.42;100.00
25238;BME280;13185;50.872;5.306;2024-03-25T08:36:12;100407.78;;;6.46;100.00
25238;BME280;13185;50.872;5.306;2024-03-25T08:38:37;100410.94;;;6.53;100.00
25238;BME280;13185;50.872;5.306;2024-03-25T08:41:03;100404.56;;;6.55;100.00
25238;BME280;13185;50.872;5.306;2024-03-25T08:43:29;100406.06;;;6.61;100.00
25238;BME280;13185;50.872;5.306;2024-03-25T08:45:55;100406.72;;;6.64;100.00
25238;BME280;13185;50.872;5.306;2024-03-25T08:48:20;100402.03;;;6.70;100.00
25238;BME280;13185;50.872;5.306;2024-03-25T08:50:46;100401.84;;;6.73;100.00
25238;BME280;13185;50.872;5.306;2024-03-25T08:53:12;100396.41;;;6.74;100.00
25238;BME280;13185;50.872;5.306;2024-03-25T08:55:37;100389.28;;;6.75;100.00
25238;BME280;13185;50.872;5.306;2024-03-25T08:58:03;100394.38;;;6.79;100.00
25238;BME280;13185;50.872;5.306;2024-03-25T09:00:29;100391.63;;;6.81;100.00
25238;BME280;13185;50.872;5.306;2024-03-25T09:02:54;100393.06;;;6.86;100.00
25238;BME280;13185;50.872;5.306;2024-03-25T09:05:21;100388.44;;;6.90;100.00
25238;BME280;13185;50.872;5.306;2024-03-25T09:07:49;100379.56;;;6.89;100.00
25238;BME280;13185;50.872;5.306;2024-03-25T09:10:20;100385.75;;;6.90;100.00
25238;BME280;13185;50.872;5.306;2024-03-25T09:13:21;100376.44;;;6.97;100.00
25238;BME280;13185;50.872;5.306;2024-03-25T09:15:49;100384.00;;;7.05;100.00
25238;BME280;13185;50.872;5.306;2024-03-25T09:18:14;100378.59;;;7.06;100.00
25238;BME280;13185;50.872;5.306;2024-03-25T09:20:39;100373.09;;;7.09;100.00
25238;BME280;13185;50.872;5.306;2024-03-25T09:23:05;100365.59;;;7.16;100.00
25238;BME280;13185;50.872;5.306;2024-03-25T09:25:30;100361.53;;;7.24;100.00
25238;BME280;13185;50.872;5.306;2024-03-25T09:27:56;100355.66;;;7.34;100.00
25238;BME280;13185;50.872;5.306;2024-03-25T09:30:21;100355.47;;;7.37;100.00
25238;BME280;13185;50.872;5.306;2024-03-25T09:32:47;100354.25;;;7.42;100.00
25238;BME280;13185;50.872;5.306;2024-03-25T09:35:13;100339.94;;;7.43;100.00
25238;BME280;13185;50.872;5.306;2024-03-25T09:37:39;100342.34;;;7.48;100.00
25238;BME280;13185;50.872;5.306;2024-03-25T09:40:05;100349.47;;;7.47;100.00
25238;BME280;13185;50.872;5.306;2024-03-25T09:42:46;100344.44;;;7.43;100.00
25238;BME280;13185;50.872;5.306;2024-03-25T09:45:13;100345.28;;;7.43;100.00
25238;BME280;13185;50.872;5.306;2024-03-25T09:47:41;100343.56;;;7.42;100.00
25238;BME280;13185;50.872;5.306;2024-03-25T09:50:10;100334.53;;;7.45;100.00
25238;BME280;13185;50.872;5.306;2024-03-25T09:52:37;100335.28;;;7.47;100.00
25238;BME280;13185;50.872;5.306;2024-03-25T09:55:03;100331.31;;;7.54;100.00
25238;BME280;13185;50.872;5.306;2024-03-25T09:57:29;100337.09;;;7.61;100.00
25238;BME280;13185;50.872;5.306;2024-03-25T09:59:55;100318.81;;;7.69;100.00
25238;BME280;13185;50.872;5.306;2024-03-25T10:02:21;100324.34;;;7.80;100.00
25238;BME280;13185;50.872;5.306;2024-03-25T10:04:51;100318.66;;;7.86;100.00
25238;BME280;13185;50.872;5.306;2024-03-25T10:07:24;100313.50;;;7.97;100.00
25238;BME280;13185;50.872;5.306;2024-03-25T10:09:52;100315.50;;;8.08;100.00
25238;BME280;13185;50.872;5.306;2024-03-25T10:12:17;100308.81;;;8.15;100.00
25238;BME280;13185;50.872;5.306;2024-03-25T10:14:43;100306.53;;;8.23;100.00
25238;BME280;13185;50.872;5.306;2024-03-25T10:17:09;100318.41;;;8.32;100.00
25238;BME280;13185;50.872;5.306;2024-03-25T10:19:35;100301.94;;;8.39;100.00
25238;BME280;13185;50.872;5.306;2024-03-25T10:22:05;100302.19;;;8.49;100.00
25238;BME280;13185;50.872;5.306;2024-03-25T10:24:41;100292.22;;;8.65;100.00
25238;BME280;13185;50.872;5.306;2024-03-25T10:27:21;100303.25;;;8.74;100.00
25238;BME280;13185;50.872;5.306;2024-03-25T10:29:48;100291.41;;;8.78;100.00
25238;BME280;13185;50.872;5.306;2024-03-25T10:32:14;100292.91;;;8.82;100.00
25238;BME280;13185;50.872;5.306;2024-03-25T10:34:40;100284.78;;;8.83;100.00
25238;BME280;13185;50.872;5.306;2024-03-25T10:37:09;100277.13;;;8.91;100.00
25238;BME280;13185;50.872;5.306;2024-03-25T10:39:39;100277.34;;;9.01;100.00
25238;BME280;13185;50.872;5.306;2024-03-25T10:42:05;100273.84;;;9.13;100.00
25238;BME280;13185;50.872;5.306;2024-03-25T10:44:32;100261.56;;;9.23;100.00
25238;BME280;13185;50.872;5.306;2024-03-25T10:47:01;100268.22;;;9.31;100.00
25238;BME280;13185;50.872;5.306;2024-03-25T10:49:38;100267.88;;;9.35;100.00
25238;BME280;13185;50.872;5.306;2024-03-25T10:52:05;100259.97;;;9.34;100.00
25238;BME280;13185;50.872;5.306;2024-03-25T10:54:31;100255.91;;;9.41;100.00
25238;BME280;13185;50.872;5.306;2024-03-25T10:56:58;100243.91;;;9.46;100.00
25238;BME280;13185;50.872;5.306;2024-03-25T10:59:26;100241.88;;;9.50;100.00
25238;BME280;13185;50.872;5.306;2024-03-25T11:01:52;100248.31;;;9.60;100.00
25238;BME280;13185;50.872;5.306;2024-03-25T11:04:19;100243.81;;;9.61;100.00
25238;BME280;13185;50.872;5.306;2024-03-25T11:06:45;100239.63;;;9.69;100.00
25238;BME280;13185;50.872;5.306;2024-03-25T11:09:10;100232.53;;;9.81;100.00
25238;BME280;13185;50.872;5.306;2024-03-25T11:11:36;100233.66;;;9.90;100.00
25238;BME280;13185;50.872;5.306;2024-03-25T11:14:15;100226.06;;;9.96;96.95
25238;BME280;13185;50.872;5.306;2024-03-25T11:16:41;100218.66;;;10.00;94.13
25238;BME280;13185;50.872;5.306;2024-03-25T11:19:11;100212.44;;;10.12;96.36
25238;BME280;13185;50.872;5.306;2024-03-25T11:21:36;100214.34;;;10.23;91.20
25238;BME280;13185;50.872;5.306;2024-03-25T11:24:08;100206.81;;;10.28;84.90
25238;BME280;13185;50.872;5.306;2024-03-25T11:26:34;100204.25;;;10.26;83.61
25238;BME280;13185;50.872;5.306;2024-03-25T11:29:01;100206.47;;;10.20;82.18
25238;BME280;13185;50.872;5.306;2024-03-25T11:31:27;100194.06;;;10.19;85.16
25238;BME280;13185;50.872;5.306;2024-03-25T11:33:55;100190.72;;;10.28;84.65
25238;BME280;13185;50.872;5.306;2024-03-25T11:36:22;100174.38;;;10.44;85.09
25238;BME280;13185;50.872;5.306;2024-03-25T11:39:04;100182.38;;;10.67;87.07
25238;BME280;13185;50.872;5.306;2024-03-25T11:41:34;100173.94;;;10.96;75.79
25238;BME280;13185;50.872;5.306;2024-03-25T11:44:01;100171.41;;;11.06;72.01
25238;BME280;13185;50.872;5.306;2024-03-25T11:46:27;100151.03;;;11.14;71.21
25238;BME280;13185;50.872;5.306;2024-03-25T11:48:53;100153.63;;;11.16;68.46
25238;BME280;13185;50.872;5.306;2024-03-25T11:51:19;100145.69;;;11.25;67.87
25238;BME280;13185;50.872;5.306;2024-03-25T11:53:45;100141.41;;;11.34;64.07
25238;BME280;13185;50.872;5.306;2024-03-25T11:56:13;100135.31;;;11.43;66.39
25238;BME280;13185;50.872;5.306;2024-03-25T11:58:40;100130.44;;;11.48;61.90
25238;BME280;13185;50.872;5.306;2024-03-25T12:01:06;100117.03;;;11.37;62.87
25238;BME280;13185;50.872;5.306;2024-03-25T12:03:34;100115.41;;;11.46;65.85
25238;BME280;13185;50.872;5.306;2024-03-25T12:05:59;100120.81;;;11.57;63.96
25238;BME280;13185;50.872;5.306;2024-03-25T12:08:26;100114.66;;;11.55;61.18
25238;BME280;13185;50.872;5.306;2024-03-25T12:10:53;100125.41;;;11.55;61.32
25238;BME280;13185;50.872;5.306;2024-03-25T12:13:40;100112.00;;;11.55;61.41
25238;BME280;13185;50.872;5.306;2024-03-25T12:16:08;100117.72;;;11.62;63.72
25238;BME280;13185;50.872;5.306;2024-03-25T12:18:35;100113.59;;;11.57;62.38
25238;BME280;13185;50.872;5.306;2024-03-25T12:21:01;100112.97;;;11.54;60.51
25238;BME280;13185;50.872;5.306;2024-03-25T12:23:30;100106.75;;;11.53;60.82
25238;BME280;13185;50.872;5.306;2024-03-25T12:25:56;100105.75;;;11.66;62.62
25238;BME280;13185;50.872;5.306;2024-03-25T12:28:22;100096.63;;;11.79;60.65
25238;BME280;13185;50.872;5.306;2024-03-25T12:30:52;100081.28;;;12.02;59.64
25238;BME280;13185;50.872;5.306;2024-03-25T12:33:18;100082.69;;;12.18;60.13
25238;BME280;13185;50.872;5.306;2024-03-25T12:35:47;100081.28;;;12.34;58.93
25238;BME280;13185;50.872;5.306;2024-03-25T12:38:25;100079.09;;;12.28;57.16
25238;BME280;13185;50.872;5.306;2024-03-25T12:40:52;100077.69;;;12.13;57.63
25238;BME280;13185;50.872;5.306;2024-03-25T12:43:18;100081.97;;;12.16;59.00
25238;BME280;13185;50.872;5.306;2024-03-25T12:45:43;100072.13;;;12.26;58.56
25238;BME280;13185;50.872;5.306;2024-03-25T12:48:10;100072.63;;;12.31;56.85